SOHO CELIAS Proton Monitor
Solar Wind Parameters for Carrington Rotation 2186 (hour averages)


Listed Parameters:

Measurement time (Year, Month, Day of Month, Day of Year, Hour, Minute, Second)
Proton speed [km/sec]
Proton density [protons per cubic centimeter]
Most probable proton thermal speed [km/sec]
Arrival direction [degrees from north-south, with + meaning FROM the south).
(SPEED=-1 means NOT AVAILABLE)

SOHO spacecraft coordinates: based on SOHO PRE orbit files
GSE X, Y, Z [Earth Radii] 1 RE == 6378 km
Heliocentric Range [106 km],
Heliographic Latitude and Longitude [deg].

FORMAT=(1X,I2,1X,I3,1X,I2,1X,I2,1X,I2,F7.1,3F7.2,3X,3F7.1,F7.1,F7.2,F8.2)



                              CELIAS/MTOF/PM DATA                      SOHO ORBIT DATA              
 InSitu_Start__Time       [km/s]  [cm-3] [km/s]  [deg]      [Re]   [Re]   [Re]  [Mkm]  [deg]  [deg]
 YY MON DY DOY:HH:MM:SS   SPEED     Np     Vth    N/S      GSE_X  GSE_Y  GSE_Z  RANGE  HGLAT  HGLONG
 17 JAN 10  10:09:00:00     559    1.9      45   -0.5      214.4 -102.6   -2.5  145.7   -4.1   360.0
 17 JAN 10  10:10:00:00     559    1.6      46   -0.6      214.4 -102.6   -2.5  145.7   -4.1   359.7
 17 JAN 10  10:11:00:00     556    1.5      46   -0.2      214.3 -102.6   -2.4  145.7   -4.1   359.2
 17 JAN 10  10:12:00:00     528    1.6      48   -1.4      214.3 -102.6   -2.4  145.7   -4.1   358.6
 17 JAN 10  10:13:00:00     540    1.6      48   -2.5      214.2 -102.6   -2.4  145.8   -4.1   358.0
 17 JAN 10  10:14:00:00     551    1.9      48   -2.6      214.2 -102.6   -2.4  145.8   -4.1   357.5
 17 JAN 10  10:15:00:00     539    2.2      47   -1.2      214.1 -102.6   -2.3  145.8   -4.1   357.0
 17 JAN 10  10:16:00:00     527    2.4      47   -0.1      214.0 -102.6   -2.3  145.8   -4.1   356.4
 17 JAN 10  10:17:00:00     503    3.3      44    0.0      214.0 -102.6   -2.3  145.8   -4.1   355.9
 17 JAN 10  10:18:00:00     482    3.7      38    0.1      213.9 -102.6   -2.3  145.8   -4.2   355.3
 17 JAN 10  10:19:00:00     489    3.7      41    0.4      213.9 -102.6   -2.2  145.8   -4.2   354.8
 17 JAN 10  10:20:00:00     484    3.9      40   -1.0      213.8 -102.6   -2.2  145.8   -4.2   354.2
 17 JAN 10  10:21:00:00     466    5.8      34   -1.5      213.8 -102.6   -2.2  145.8   -4.2   353.7
 17 JAN 10  10:22:00:00     465    5.1      33   -1.4      213.7 -102.6   -2.2  145.8   -4.2   353.1
 17 JAN 10  10:23:00:00     484    4.2      39   -1.2      213.7 -102.6   -2.1  145.8   -4.2   352.6
 17 JAN 11  11:00:00:00     479    4.2      39   -1.4      213.6 -102.6   -2.1  145.8   -4.2   352.0
 17 JAN 11  11:01:00:00     487    3.9      41   -1.6      213.6 -102.6   -2.1  145.8   -4.2   351.5
 17 JAN 11  11:02:00:00     483    4.2      40   -2.5      213.5 -102.6   -2.1  145.8   -4.2   350.9
 17 JAN 11  11:03:00:00     474    5.1      38   -1.8      213.5 -102.6   -2.0  145.8   -4.2   350.4
 17 JAN 11  11:04:00:00     479    5.6      38   -3.2      213.4 -102.6   -2.0  145.8   -4.2   349.8
 17 JAN 11  11:05:00:00     499    4.1      43   -2.9      213.4 -102.6   -2.0  145.8   -4.2   349.3
 17 JAN 11  11:06:00:00     501    4.0      44   -2.3      213.3 -102.6   -1.9  145.8   -4.2   348.8
 17 JAN 11  11:07:00:00     505    4.6      45   -2.7      213.3 -102.6   -1.9  145.8   -4.2   348.2
 17 JAN 11  11:08:00:00     486    3.9      41   -1.7      213.2 -102.6   -1.9  145.8   -4.2   347.6
 17 JAN 11  11:09:00:00     477    3.5      38   -0.5      213.2 -102.6   -1.9  145.8   -4.2   347.1
 17 JAN 11  11:10:00:00     460    4.4      31    0.1      213.1 -102.6   -1.8  145.8   -4.2   346.5
 17 JAN 11  11:11:00:00     453    4.0      28    0.1      213.1 -102.6   -1.8  145.8   -4.2   346.0
 17 JAN 11  11:12:00:00     454    3.2      30    0.5      213.0 -102.6   -1.8  145.8   -4.2   345.4
 17 JAN 11  11:13:00:00     456    3.2      32    0.3      213.0 -102.5   -1.8  145.8   -4.2   344.9
 17 JAN 11  11:14:00:00     455    2.9      34    0.3      212.9 -102.5   -1.7  145.8   -4.2   344.3
 17 JAN 11  11:15:00:00     454    2.7      36   -0.3      212.9 -102.5   -1.7  145.8   -4.2   343.8
 17 JAN 11  11:16:00:00     448    2.9      35   -0.8      212.8 -102.5   -1.7  145.8   -4.2   343.3
 17 JAN 11  11:17:00:00     448    2.3      39   -0.1      212.8 -102.5   -1.7  145.8   -4.2   342.7
 17 JAN 11  11:18:00:00     443    2.2      41    0.7      212.7 -102.5   -1.6  145.8   -4.2   342.2
 17 JAN 11  11:19:00:00     437    2.1      40    0.2      212.7 -102.5   -1.6  145.8   -4.2   341.6
 17 JAN 11  11:20:00:00     429    2.2      40    0.3      212.6 -102.5   -1.6  145.8   -4.2   341.1
 17 JAN 11  11:21:00:00     417    2.6      37    0.5      212.6 -102.5   -1.6  145.8   -4.3   340.5
 17 JAN 11  11:22:00:00     405    3.2      35    0.6      212.5 -102.5   -1.5  145.8   -4.3   339.9
 17 JAN 11  11:23:00:00     404    3.2      34    1.1      212.5 -102.5   -1.5  145.8   -4.3   339.4
 17 JAN 12  12:00:00:00     410    2.7      35    1.2      212.4 -102.5   -1.5  145.8   -4.3   338.8
 17 JAN 12  12:01:00:00     408    2.8      35    1.6      212.4 -102.5   -1.5  145.8   -4.3   338.3
 17 JAN 12  12:02:00:00     414    2.3      36    1.7      212.3 -102.5   -1.4  145.8   -4.3   337.8
 17 JAN 12  12:03:00:00     404    2.8      34    1.7      212.3 -102.4   -1.4  145.8   -4.3   337.2
 17 JAN 12  12:04:00:00     394    3.6      32    1.7      212.2 -102.4   -1.4  145.8   -4.3   336.7
 17 JAN 12  12:05:00:00     387    3.5      30    1.6      212.2 -102.4   -1.4  145.8   -4.3   336.1
 17 JAN 12  12:06:00:00     379    3.9      27    1.3      212.1 -102.4   -1.3  145.8   -4.3   335.6
 17 JAN 12  12:07:00:00     378    4.4      27    1.2      212.1 -102.4   -1.3  145.8   -4.3   335.0
 17 JAN 12  12:08:00:00     375    4.5      26    1.0      212.0 -102.4   -1.3  145.8   -4.3   334.5
 17 JAN 12  12:09:00:00     367    4.4      23    1.0      212.0 -102.4   -1.3  145.8   -4.3   333.9
 17 JAN 12  12:10:00:00     359    4.4      22   -0.3      212.0 -102.4   -1.2  145.8   -4.4   333.3
 17 JAN 12  12:11:00:00     356    4.9      22   -1.1      211.9 -102.4   -1.2  145.8   -4.4   332.8
 17 JAN 12  12:12:00:00     355    4.5      21   -0.6      211.9 -102.4   -1.2  145.8   -4.4   332.3
 17 JAN 12  12:13:00:00     361    4.5      22   -0.3      211.8 -102.4   -1.2  145.8   -4.4   331.7
 17 JAN 12  12:14:00:00     357    5.4      21   -0.6      211.8 -102.3   -1.1  145.8   -4.4   331.2
 17 JAN 12  12:15:00:00     354    5.7      21   -1.3      211.7 -102.3   -1.1  145.8   -4.4   330.7
 17 JAN 12  12:16:00:00     356    5.9      21   -1.4      211.7 -102.3   -1.1  145.8   -4.4   330.1
 17 JAN 12  12:17:00:00     358    5.6      22   -0.8      211.6 -102.3   -1.0  145.8   -4.4   329.5
 17 JAN 12  12:18:00:00     356    5.4      22   -0.8      211.6 -102.3   -1.0  145.8   -4.4   329.0
 17 JAN 12  12:19:00:00     357    5.4      23   -1.4      211.5 -102.3   -1.0  145.8   -4.4   328.4
 17 JAN 12  12:20:00:00     359    5.2      23   -1.7      211.5 -102.3   -1.0  145.8   -4.4   327.9
 17 JAN 12  12:21:00:00     359    5.0      22   -1.7      211.4 -102.3   -0.9  145.8   -4.4   327.3
 17 JAN 12  12:22:00:00     359    6.4      23   -3.0      211.4 -102.2   -0.9  145.8   -4.4   326.8
 17 JAN 12  12:23:00:00     357    6.5      23   -3.3      211.3 -102.2   -0.9  145.8   -4.4   326.2
 17 JAN 13  13:00:00:00     357    6.9      22   -2.2      211.3 -102.2   -0.9  145.8   -4.4   325.7
 17 JAN 13  13:01:00:00     356    8.5      23   -3.4      211.2 -102.2   -0.8  145.8   -4.4   325.2
 17 JAN 13  13:02:00:00     355    7.2      23   -3.1      211.2 -102.2   -0.8  145.8   -4.4   324.6
 17 JAN 13  13:03:00:00     355    7.5      23   -3.4      211.2 -102.2   -0.8  145.8   -4.4   324.1
 17 JAN 13  13:04:00:00     352    7.0      23   -3.3      211.1 -102.2   -0.8  145.8   -4.4   323.5
 17 JAN 13  13:05:00:00     352    6.2      22   -2.2      211.1 -102.2   -0.7  145.8   -4.4   322.9
 17 JAN 13  13:06:00:00     353    5.0      23   -1.9      211.0 -102.1   -0.7  145.8   -4.4   322.4
 17 JAN 13  13:07:00:00     350    5.7      22   -3.8      211.0 -102.1   -0.7  145.8   -4.4   321.8
 17 JAN 13  13:08:00:00     352    5.0      22   -2.2      210.9 -102.1   -0.7  145.8   -4.4   321.3
 17 JAN 13  13:09:00:00     350    3.2      24   -1.3      210.9 -102.1   -0.6  145.8   -4.4   320.7
 17 JAN 13  13:10:00:00     353    3.3      23   -1.5      210.8 -102.1   -0.6  145.8   -4.4   320.2
 17 JAN 13  13:11:00:00     352    3.4      23   -0.2      210.8 -102.1   -0.6  145.8   -4.4   319.7
 17 JAN 13  13:12:00:00     351    4.8      20   -1.5      210.8 -102.0   -0.6  145.8   -4.4   319.1
 17 JAN 13  13:13:00:00     354    4.2      22   -1.8      210.7 -102.0   -0.5  145.8   -4.4   318.6
 17 JAN 13  13:14:00:00     353    4.9      21   -2.2      210.7 -102.0   -0.5  145.8   -4.5   318.0
 17 JAN 13  13:15:00:00     353    6.0      23   -3.0      210.6 -102.0   -0.5  145.8   -4.5   317.5
 17 JAN 13  13:16:00:00     356    5.6      25   -2.0      210.6 -102.0   -0.5  145.8   -4.5   316.9
 17 JAN 13  13:17:00:00     351    5.6      27   -2.3      210.5 -102.0   -0.4  145.8   -4.5   316.4
 17 JAN 13  13:18:00:00     355    5.7      28   -3.0      210.5 -101.9   -0.4  145.8   -4.5   315.8
 17 JAN 13  13:19:00:00     356    4.5      30   -2.7      210.4 -101.9   -0.4  145.8   -4.5   315.2
 17 JAN 13  13:20:00:00     353    4.0      29   -2.5      210.4 -101.9   -0.3  145.8   -4.5   314.7
 17 JAN 13  13:21:00:00     344    3.4      27   -1.4      210.4 -101.9   -0.3  145.8   -4.5   314.2
 17 JAN 13  13:22:00:00     356    3.1      28   -0.5      210.3 -101.9   -0.3  145.8   -4.5   313.6
 17 JAN 13  13:23:00:00     348    2.4      26    0.9      210.3 -101.8   -0.3  145.8   -4.5   313.1
 17 JAN 14  14:00:00:00     360    2.6      26   -0.5      210.2 -101.8   -0.2  145.8   -4.5   312.5
 17 JAN 14  14:01:00:00     370    3.4      28   -0.5      210.2 -101.8   -0.2  145.8   -4.5   312.0
 17 JAN 14  14:02:00:00     372    3.2      29   -0.3      210.1 -101.8   -0.2  145.8   -4.5   311.4
 17 JAN 14  14:03:00:00     360    2.8      28    0.1      210.1 -101.8   -0.2  145.8   -4.5   310.9
 17 JAN 14  14:04:00:00     358    2.5      28   -0.5      210.0 -101.8   -0.1  145.8   -4.5   310.3
 17 JAN 14  14:05:00:00     362    3.5      24   -0.7      210.0 -101.7   -0.1  145.8   -4.5   309.8
 17 JAN 14  14:06:00:00     359    3.7      22   -1.3      210.0 -101.7   -0.1  145.8   -4.5   309.2
 17 JAN 14  14:07:00:00     358    2.6      23   -0.3      209.9 -101.7   -0.1  145.8   -4.5   308.7
 17 JAN 14  14:08:00:00     361    3.1      23   -1.4      209.9 -101.7    0.0  145.8   -4.5   308.1
 17 JAN 14  14:09:00:00     363    2.8      24   -1.5      209.8 -101.6    0.0  145.8   -4.5   307.6
 17 JAN 14  14:10:00:00     360    2.2      27   -1.9      209.8 -101.6    0.0  145.8   -4.5   307.0
 17 JAN 14  14:11:00:00     369    2.2      27   -1.6      209.8 -101.6    0.0  145.8   -4.5   306.5
 17 JAN 14  14:12:00:00     369    1.9      30   -1.7      209.7 -101.6    0.1  145.8   -4.5   306.0
 17 JAN 14  14:13:00:00     354    1.6      30   -2.0      209.7 -101.6    0.1  145.8   -4.5   305.4
 17 JAN 14  14:14:00:00     358    1.5      30   -1.6      209.6 -101.5    0.1  145.8   -4.5   304.8
 17 JAN 14  14:15:00:00     336    2.6      25   -1.9      209.6 -101.5    0.1  145.8   -4.5   304.3
 17 JAN 14  14:16:00:00     311    3.8      21   -1.8      209.5 -101.5    0.2  145.8   -4.5   303.7
 17 JAN 14  14:17:00:00     312    3.4      21   -1.6      209.5 -101.5    0.2  145.8   -4.6   303.2
 17 JAN 14  14:18:00:00     323    2.7      23   -1.9      209.5 -101.4    0.2  145.8   -4.6   302.6
 17 JAN 14  14:19:00:00     336    1.9      27   -2.0      209.4 -101.4    0.2  145.8   -4.6   302.1
 17 JAN 14  14:20:00:00     327    2.4      24   -1.9      209.4 -101.4    0.3  145.8   -4.6   301.5
 17 JAN 14  14:21:00:00     308    2.8      20   -1.2      209.3 -101.4    0.3  145.8   -4.6   301.0
 17 JAN 14  14:22:00:00     317    2.6      22   -1.4      209.3 -101.3    0.3  145.8   -4.6   300.5
 17 JAN 14  14:23:00:00     332    1.6      25   -2.5      209.3 -101.3    0.4  145.8   -4.6   299.9
 17 JAN 15  15:00:00:00     338    1.9      27   -2.6      209.2 -101.3    0.4  145.8   -4.6   299.4
 17 JAN 15  15:01:00:00     329    2.5      24   -2.9      209.2 -101.3    0.4  145.8   -4.6   298.8
 17 JAN 15  15:02:00:00     324    2.8      21   -3.6      209.1 -101.2    0.4  145.8   -4.6   298.3
 17 JAN 15  15:03:00:00     318    3.8      21   -1.8      209.1 -101.2    0.5  145.8   -4.6   297.7
 17 JAN 15  15:04:00:00     322    3.3      21   -1.2      209.0 -101.2    0.5  145.8   -4.6   297.1
 17 JAN 15  15:05:00:00     319    3.3      21   -0.8      209.0 -101.2    0.5  145.8   -4.6   296.6
 17 JAN 15  15:06:00:00     310    3.8      20   -0.7      209.0 -101.1    0.5  145.8   -4.6   296.0
 17 JAN 15  15:07:00:00     309    4.1      20   -1.1      208.9 -101.1    0.6  145.8   -4.6   295.5
 17 JAN 15  15:08:00:00     312    4.3      20   -1.5      208.9 -101.1    0.6  145.8   -4.6   295.0
 17 JAN 15  15:09:00:00     310    4.3      20   -1.0      208.8 -101.1    0.6  145.8   -4.6   294.4
 17 JAN 15  15:10:00:00     307    4.8      19   -1.6      208.8 -101.0    0.6  145.8   -4.6   293.9
 17 JAN 15  15:11:00:00     304    5.5      19   -2.4      208.8 -101.0    0.7  145.8   -4.6   293.3
 17 JAN 15  15:12:00:00     308    5.4      19   -2.5      208.7 -101.0    0.7  145.8   -4.6   292.8
 17 JAN 15  15:13:00:00     305    4.9      19   -1.9      208.7 -100.9    0.7  145.8   -4.6   292.2
 17 JAN 15  15:14:00:00     309    4.9      20   -1.8      208.6 -100.9    0.7  145.8   -4.6   291.7
 17 JAN 15  15:15:00:00     307    4.5      20   -1.0      208.6 -100.9    0.8  145.8   -4.6   291.1
 17 JAN 15  15:16:00:00     308    4.9      19   -1.9      208.6 -100.9    0.8  145.8   -4.6   290.5
 17 JAN 15  15:17:00:00     303    6.5      19   -4.0      208.5 -100.8    0.8  145.8   -4.6   290.0
 17 JAN 15  15:18:00:00     307    8.5      19   -4.9      208.5 -100.8    0.8  145.8   -4.6   289.5
 17 JAN 15  15:19:00:00     316    6.7      21   -3.0      208.5 -100.8    0.9  145.8   -4.6   288.9
 17 JAN 15  15:20:00:00     316    6.2      21   -2.5      208.4 -100.7    0.9  145.8   -4.6   288.4
 17 JAN 15  15:21:00:00     313    6.8      21   -2.9      208.4 -100.7    0.9  145.8   -4.7   287.9
 17 JAN 15  15:22:00:00     312    6.3      21   -2.9      208.3 -100.7    1.0  145.8   -4.7   287.3
 17 JAN 15  15:23:00:00     310    6.5      20   -2.7      208.3 -100.6    1.0  145.8   -4.7   286.7
 17 JAN 16  16:00:00:00     310    6.0      21   -2.2      208.3 -100.6    1.0  145.8   -4.7   286.2
 17 JAN 16  16:01:00:00     309    6.1      20   -2.1      208.2 -100.6    1.0  145.8   -4.7   285.6
 17 JAN 16  16:02:00:00     308    5.9      20   -2.0      208.2 -100.5    1.1  145.8   -4.7   285.1
 17 JAN 16  16:03:00:00     306    5.8      20   -1.7      208.1 -100.5    1.1  145.8   -4.7   284.5
 17 JAN 16  16:04:00:00     316    6.9      21   -2.5      208.1 -100.5    1.1  145.8   -4.7   284.0
 17 JAN 16  16:05:00:00     312    7.3      21   -3.3      208.1 -100.5    1.1  145.8   -4.7   283.4
 17 JAN 16  16:06:00:00     309    7.6      20   -2.9      208.0 -100.4    1.2  145.8   -4.7   282.9
 17 JAN 16  16:07:00:00     308    6.4      20   -2.8      208.0 -100.4    1.2  145.8   -4.7   282.4
 17 JAN 16  16:08:00:00     305    5.8      19   -2.8      208.0 -100.4    1.2  145.8   -4.7   281.8
 17 JAN 16  16:09:00:00     297    5.1      19   -2.2      207.9 -100.3    1.2  145.8   -4.7   281.3
 17 JAN 16  16:10:00:00     295    4.7      19   -2.2      207.9 -100.3    1.3  145.8   -4.7   280.7
 17 JAN 16  16:11:00:00     293    4.5      19   -1.9      207.8 -100.2    1.3  145.8   -4.7   280.1
 17 JAN 16  16:12:00:00     289    4.7      18   -2.3      207.8 -100.2    1.3  145.8   -4.8   279.6
 17 JAN 16  16:13:00:00     286    4.9      17   -2.1      207.8 -100.2    1.3  145.8   -4.8   279.0
 17 JAN 16  16:14:00:00     285    4.9      17   -1.9      207.7 -100.1    1.4  145.8   -4.8   278.5
 17 JAN 16  16:15:00:00     283    3.6      17   -1.4      207.7 -100.1    1.4  145.8   -4.8   277.9
 17 JAN 16  16:16:00:00     290    2.8      18   -1.5      207.7 -100.1    1.4  145.8   -4.8   277.4
 17 JAN 16  16:17:00:00     288    6.1      17   -3.1      207.6 -100.0    1.4  145.8   -4.8   276.9
 17 JAN 16  16:18:00:00     285    7.5      17   -3.2      207.6 -100.0    1.5  145.8   -4.8   276.3
 17 JAN 16  16:19:00:00     287   13.3      17   -5.1      207.5 -100.0    1.5  145.8   -4.8   275.8
 17 JAN 16  16:20:00:00     283   12.4      17   -4.6      207.5  -99.9    1.5  145.8   -4.8   275.2
 17 JAN 16  16:21:00:00     283   13.5      17   -4.8      207.5  -99.9    1.5  145.8   -4.8   274.7
 17 JAN 16  16:22:00:00     299    6.1      19   -3.6      207.4  -99.8    1.6  145.8   -4.8   274.1
 17 JAN 16  16:23:00:00     302    4.6      19   -2.8      207.4  -99.8    1.6  145.8   -4.8   273.6
 17 JAN 17  17:00:00:00     299    4.7      19   -3.1      207.4  -99.8    1.6  145.8   -4.8   273.0
 17 JAN 17  17:01:00:00     295    4.0      19   -2.3      207.3  -99.7    1.7  145.8   -4.8   272.4
 17 JAN 17  17:02:00:00     294    3.9      19   -1.9      207.3  -99.7    1.7  145.8   -4.8   271.9
 17 JAN 17  17:03:00:00     293    4.0      19   -1.8      207.3  -99.7    1.7  145.8   -4.8   271.4
 17 JAN 17  17:04:00:00     294    3.6      19   -1.3      207.2  -99.6    1.7  145.8   -4.8   270.8
 17 JAN 17  17:05:00:00     296    3.4      19   -0.9      207.2  -99.6    1.8  145.9   -4.8   270.3
 17 JAN 17  17:06:00:00     301    2.9      19   -0.7      207.1  -99.5    1.8  145.9   -4.8   269.7
 17 JAN 17  17:07:00:00     304    2.9      19   -0.1      207.1  -99.5    1.8  145.9   -4.8   269.2
 17 JAN 17  17:08:00:00     302    2.9      19   -0.5      207.1  -99.5    1.8  145.9   -4.8   268.6
 17 JAN 17  17:09:00:00     296    3.6      19   -1.4      207.0  -99.4    1.9  145.9   -4.8   268.1
 17 JAN 17  17:10:00:00     293    4.5      19   -2.2      207.0  -99.4    1.9  145.9   -4.8   267.5
 17 JAN 17  17:11:00:00     289    5.0      18   -1.9      207.0  -99.3    1.9  145.9   -4.8   267.0
 17 JAN 17  17:12:00:00     284    5.5      17    0.0      206.9  -99.3    1.9  145.9   -4.8   266.4
 17 JAN 17  17:13:00:00     287    5.5      17   -1.0      206.9  -99.3    2.0  145.9   -4.8   265.9
 17 JAN 17  17:14:00:00     287    5.6      17   -1.6      206.9  -99.2    2.0  145.9   -4.8   265.3
 17 JAN 17  17:15:00:00     285    5.5      17   -1.5      206.8  -99.2    2.0  145.9   -4.8   264.8
 17 JAN 17  17:16:00:00     284    5.1      17   -1.0      206.8  -99.1    2.0  145.9   -4.8   264.2
 17 JAN 17  17:17:00:00     284    4.9      17   -0.6      206.8  -99.1    2.1  145.9   -4.9   263.7
 17 JAN 17  17:18:00:00     281    4.3      17   -0.1      206.7  -99.0    2.1  145.9   -4.9   263.2
 17 JAN 17  17:19:00:00     284    4.4      17    0.3      206.7  -99.0    2.1  145.9   -4.9   262.6
 17 JAN 17  17:20:00:00     285    4.3      17    0.3      206.7  -99.0    2.1  145.9   -4.9   262.0
 17 JAN 17  17:21:00:00     283    5.6      17    0.3      206.6  -98.9    2.2  145.9   -4.9   261.5
 17 JAN 17  17:22:00:00     288    8.9      17    1.2      206.6  -98.9    2.2  145.9   -4.9   260.9
 17 JAN 17  17:23:00:00     290   10.4      18    2.2      206.6  -98.8    2.2  145.9   -4.9   260.4
 17 JAN 18  18:00:00:00     290   12.1      18    2.7      206.5  -98.8    2.2  145.9   -4.9   259.8
 17 JAN 18  18:01:00:00     303   22.0      19    5.6      206.5  -98.7    2.3  145.9   -4.9   259.3
 17 JAN 18  18:02:00:00     319   17.6      19    5.7      206.5  -98.7    2.3  145.9   -4.9   258.7
 17 JAN 18  18:03:00:00     327   18.8      20    5.3      206.4  -98.6    2.3  145.9   -4.9   258.2
 17 JAN 18  18:04:00:00     341   12.3      23    1.4      206.4  -98.6    2.3  145.9   -4.9   257.7
 17 JAN 18  18:05:00:00     360   15.2      34    1.5      206.4  -98.6    2.4  145.9   -4.9   257.1
 17 JAN 18  18:06:00:00     372   15.4      40    1.8      206.3  -98.5    2.4  145.9   -4.9   256.6
 17 JAN 18  18:07:00:00     400   12.8      48    3.6      206.3  -98.5    2.4  145.9   -4.9   256.0
 17 JAN 18  18:08:00:00     411   14.2      50    4.4      206.3  -98.4    2.5  145.9   -4.9   255.5
 17 JAN 18  18:09:00:00     413   15.9      52    4.3      206.2  -98.4    2.5  145.9   -4.9   254.9
 17 JAN 18  18:10:00:00     436   12.1      54    1.3      206.2  -98.3    2.5  145.9   -4.9   254.3
 17 JAN 18  18:11:00:00     454   10.5      57   -1.1      206.2  -98.3    2.5  145.9   -4.9   253.8
 17 JAN 18  18:12:00:00     462    9.9      53   -0.7      206.1  -98.2    2.6  145.9   -4.9   253.2
 17 JAN 18  18:13:00:00     510    8.3      57   -0.8      206.1  -98.2    2.6  145.9   -4.9   252.7
 17 JAN 18  18:14:00:00     540    7.1      55   -0.9      206.1  -98.1    2.6  145.9   -4.9   252.2
 17 JAN 18  18:15:00:00     553    7.8      53   -1.4      206.0  -98.1    2.6  145.9   -4.9   251.6
 17 JAN 18  18:16:00:00     542    6.7      64    0.9      206.0  -98.0    2.7  145.9   -4.9   251.1
 17 JAN 18  18:17:00:00     544    6.7      52    0.0      206.0  -98.0    2.7  145.9   -4.9   250.5
 17 JAN 18  18:18:00:00     529    6.1      54   -0.6      205.9  -97.9    2.7  145.9   -4.9   250.0
 17 JAN 18  18:19:00:00     531    5.8      55    0.1      205.9  -97.9    2.7  145.9   -4.9   249.4
 17 JAN 18  18:20:00:00     538    6.4      53   -0.6      205.9  -97.8    2.8  145.9   -4.9   248.9
 17 JAN 18  18:21:00:00     549    6.4      50   -2.8      205.8  -97.8    2.8  145.9   -4.9   248.3
 17 JAN 18  18:22:00:00     540    6.4      58   -1.7      205.8  -97.7    2.8  145.9   -5.0   247.7
 17 JAN 18  18:23:00:00     547    6.0      51   -2.0      205.8  -97.7    2.8  145.9   -5.0   247.2
 17 JAN 19  19:00:00:00     561    5.0      67   -1.6      205.7  -97.6    2.9  145.9   -5.0   246.7
 17 JAN 19  19:01:00:00     559    4.9      64   -1.9      205.7  -97.6    2.9  145.9   -5.0   246.1
 17 JAN 19  19:02:00:00     563    4.2      50   -0.5      205.7  -97.5    2.9  145.9   -5.0   245.6
 17 JAN 19  19:03:00:00     562    4.4      45   -3.1      205.6  -97.5    2.9  145.9   -5.0   245.1
 17 JAN 19  19:04:00:00     564    3.8      49   -2.0      205.6  -97.4    3.0  145.9   -5.0   244.5
 17 JAN 19  19:05:00:00     567    4.1      51   -2.6      205.6  -97.4    3.0  145.9   -5.0   243.9
 17 JAN 19  19:06:00:00     571    4.4      48   -1.5      205.5  -97.3    3.0  145.9   -5.0   243.4
 17 JAN 19  19:07:00:00     569    4.1      51   -0.5      205.5  -97.3    3.0  145.9   -5.0   242.8
 17 JAN 19  19:08:00:00     567    3.9      49    0.4      205.5  -97.2    3.1  145.9   -5.0   242.3
 17 JAN 19  19:09:00:00     574    3.6      54   -1.0      205.4  -97.1    3.1  145.9   -5.0   241.7
 17 JAN 19  19:10:00:00     567    3.8      50   -0.6      205.4  -97.1    3.1  145.9   -5.0   241.2
 17 JAN 19  19:11:00:00     568    3.6      49   -1.0      205.4  -97.0    3.1  145.9   -5.0   240.6
 17 JAN 19  19:12:00:00     563    3.0      51    0.6      205.3  -97.0    3.2  145.9   -5.0   240.1
 17 JAN 19  19:13:00:00     560    3.4      50   -0.7      205.3  -96.9    3.2  145.9   -5.0   239.6
 17 JAN 19  19:14:00:00     563    3.3      47    1.4      205.3  -96.9    3.2  145.9   -5.0   239.0
 17 JAN 19  19:15:00:00     562    3.8      44    1.6      205.2  -96.8    3.2  145.9   -5.0   238.5
 17 JAN 19  19:16:00:00     559    3.5      45    0.2      205.2  -96.8    3.3  145.9   -5.0   237.9
 17 JAN 19  19:17:00:00     551    2.8      46    0.7      205.2  -96.7    3.3  145.9   -5.0   237.3
 17 JAN 19  19:18:00:00     547    2.3      48    0.1      205.2  -96.7    3.3  145.9   -5.0   236.8
 17 JAN 19  19:19:00:00     552    2.0      49    0.3      205.1  -96.6    3.3  145.9   -5.0   236.2
 17 JAN 19  19:20:00:00     540    2.1      48    0.8      205.1  -96.5    3.4  145.9   -5.0   235.7
 17 JAN 19  19:21:00:00     554    2.6      48   -1.0      205.1  -96.5    3.4  145.9   -5.0   235.1
 17 JAN 19  19:22:00:00     554    3.4      48    0.3      205.0  -96.4    3.4  145.9   -5.0   234.6
 17 JAN 19  19:23:00:00     553    3.1      48   -1.8      205.0  -96.4    3.4  145.9   -5.0   234.1
 17 JAN 20  20:00:00:00     551    2.8      47    0.1      205.0  -96.3    3.5  145.9   -5.0   233.5
 17 JAN 20  20:01:00:00     542    2.5      48    0.7      204.9  -96.3    3.5  145.9   -5.0   233.0
 17 JAN 20  20:02:00:00     544    2.7      47    0.3      204.9  -96.2    3.5  145.9   -5.0   232.4
 17 JAN 20  20:03:00:00     556    2.6      44    0.5      204.9  -96.1    3.5  145.9   -5.0   231.9
 17 JAN 20  20:04:00:00     550    2.4      45    0.3      204.8  -96.1    3.6  145.9   -5.1   231.3
 17 JAN 20  20:05:00:00     518    2.9      46    1.0      204.8  -96.0    3.6  145.9   -5.1   230.8
 17 JAN 20  20:06:00:00     516    3.2      46    1.1      204.8  -96.0    3.6  145.9   -5.1   230.2
 17 JAN 20  20:07:00:00     519    2.7      47    1.7      204.8  -95.9    3.6  145.9   -5.1   229.6
 17 JAN 20  20:08:00:00     511    2.8      45    1.4      204.7  -95.8    3.7  145.9   -5.1   229.1
 17 JAN 20  20:09:00:00     520    2.3      46    1.7      204.7  -95.8    3.7  145.9   -5.1   228.6
 17 JAN 20  20:10:00:00     504    2.8      44    2.5      204.7  -95.7    3.7  145.9   -5.1   228.0
 17 JAN 20  20:11:00:00     492    3.3      42    1.5      204.6  -95.7    3.7  145.9   -5.1   227.5
 17 JAN 20  20:12:00:00     482    3.6      38    2.2      204.6  -95.6    3.8  145.9   -5.1   226.9
 17 JAN 20  20:13:00:00     467    4.1      34    1.3      204.6  -95.5    3.8  145.9   -5.1   226.4
 17 JAN 20  20:14:00:00     462    3.9      32    0.2      204.5  -95.5    3.8  145.9   -5.1   225.8
 17 JAN 20  20:15:00:00     465    3.9      32    0.6      204.5  -95.4    3.8  145.9   -5.1   225.3
 17 JAN 20  20:16:00:00     469    3.3      34    1.2      204.5  -95.3    3.9  145.9   -5.1   224.7
 17 JAN 20  20:17:00:00     472    3.3      35    1.5      204.5  -95.3    3.9  145.9   -5.1   224.2
 17 JAN 20  20:18:00:00     499    3.2      43   -0.7      204.4  -95.2    3.9  145.9   -5.1   223.6
 17 JAN 20  20:19:00:00     505    3.6      45   -0.4      204.4  -95.2    3.9  145.9   -5.1   223.1
 17 JAN 20  20:20:00:00     494    3.9      44    0.4      204.4  -95.1    4.0  145.9   -5.2   222.5
 17 JAN 20  20:21:00:00     481    4.1      41   -0.8      204.3  -95.0    4.0  145.9   -5.2   222.0
 17 JAN 20  20:22:00:00     476    4.1      40    0.3      204.3  -95.0    4.0  145.9   -5.2   221.4
 17 JAN 20  20:23:00:00     478    4.2      40    1.1      204.3  -94.9    4.0  145.9   -5.2   220.9
 17 JAN 21  21:00:00:00     467    4.2      36    0.8      204.3  -94.8    4.1  145.9   -5.2   220.4
 17 JAN 21  21:01:00:00     463    4.5      34    0.7      204.2  -94.8    4.1  145.9   -5.2   219.8
 17 JAN 21  21:02:00:00     466    4.7      34    0.5      204.2  -94.7    4.1  145.9   -5.2   219.2
 17 JAN 21  21:03:00:00     470    5.1      37    1.4      204.2  -94.6    4.1  145.9   -5.2   218.7
 17 JAN 21  21:04:00:00     467    5.3      36    1.2      204.1  -94.6    4.2  145.9   -5.2   218.1
 17 JAN 21  21:05:00:00     465    6.1      34    2.9      204.1  -94.5    4.2  145.9   -5.2   217.6
 17 JAN 21  21:06:00:00     462    5.0      35    2.2      204.1  -94.4    4.2  145.9   -5.2   217.0
 17 JAN 21  21:07:00:00     465    4.7      33    2.1      204.0  -94.4    4.2  145.9   -5.2   216.5
 17 JAN 21  21:08:00:00     458    4.2      35    1.7      204.0  -94.3    4.3  145.9   -5.2   215.9
 17 JAN 21  21:09:00:00     453    3.7      36    1.6      204.0  -94.2    4.3  145.9   -5.2   215.4
 17 JAN 21  21:10:00:00     463    4.1      34    2.0      204.0  -94.2    4.3  145.9   -5.2   214.9
 17 JAN 21  21:11:00:00     461    3.9      35    2.1      203.9  -94.1    4.3  145.9   -5.2   214.3
 17 JAN 21  21:12:00:00     461    4.0      35    1.6      203.9  -94.0    4.4  145.9   -5.2   213.8
 17 JAN 21  21:13:00:00     462    4.4      34    1.1      203.9  -94.0    4.4  145.9   -5.2   213.2
 17 JAN 21  21:14:00:00     463    5.3      32    1.3      203.8  -93.9    4.4  145.9   -5.2   212.6
 17 JAN 21  21:15:00:00     463    6.0      32    0.6      203.8  -93.8    4.4  145.9   -5.2   212.1
 17 JAN 21  21:16:00:00     464    6.5      31    1.6      203.8  -93.8    4.5  145.9   -5.2   211.5
 17 JAN 21  21:17:00:00     466    6.6      33    1.3      203.8  -93.7    4.5  145.9   -5.2   211.0
 17 JAN 21  21:18:00:00     466    6.2      34    1.2      203.7  -93.6    4.5  145.9   -5.2   210.4
 17 JAN 21  21:19:00:00     467    6.1      36    0.8      203.7  -93.6    4.5  145.9   -5.2   209.9
 17 JAN 21  21:20:00:00     467    5.7      37    0.9      203.7  -93.5    4.6  145.9   -5.2   209.4
 17 JAN 21  21:21:00:00     470    5.8      37    1.5      203.7  -93.4    4.6  145.9   -5.2   208.8
 17 JAN 21  21:22:00:00     481    5.4      39   -0.9      203.6  -93.4    4.6  145.9   -5.2   208.3
 17 JAN 21  21:23:00:00     470    5.3      35    0.1      203.6  -93.3    4.6  145.9   -5.2   207.7
 17 JAN 22  22:00:00:00     466    5.5      35    0.6      203.6  -93.2    4.7  145.9   -5.2   207.2
 17 JAN 22  22:01:00:00     467    4.2      34    0.8      203.5  -93.1    4.7  145.9   -5.2   206.6
 17 JAN 22  22:02:00:00     470    4.1      36    0.1      203.5  -93.1    4.7  145.9   -5.2   206.1
 17 JAN 22  22:03:00:00     478    4.4      40   -0.7      203.5  -93.0    4.7  145.9   -5.3   205.5
 17 JAN 22  22:04:00:00     476    4.0      38    0.0      203.5  -92.9    4.8  145.9   -5.3   204.9
 17 JAN 22  22:05:00:00     492    3.7      42   -0.3      203.4  -92.9    4.8  145.9   -5.3   204.4
 17 JAN 22  22:06:00:00     478    4.7      41    2.4      203.4  -92.8    4.8  145.9   -5.3   203.9
 17 JAN 22  22:07:00:00     485    4.1      41    0.6      203.4  -92.7    4.8  145.9   -5.3   203.3
 17 JAN 22  22:08:00:00     491    3.3      41    0.3      203.3  -92.6    4.9  145.9   -5.3   202.8
 17 JAN 22  22:09:00:00     485    3.0      40    1.4      203.3  -92.6    4.9  145.9   -5.3   202.2
 17 JAN 22  22:10:00:00     504    2.5      43    1.2      203.3  -92.5    4.9  145.9   -5.3   201.7
 17 JAN 22  22:11:00:00     464    3.5      34    1.4      203.3  -92.4    4.9  145.9   -5.3   201.1
 17 JAN 22  22:12:00:00     461    3.5      32    1.8      203.2  -92.3    5.0  145.9   -5.3   200.6
 17 JAN 22  22:13:00:00     462    3.6      33    0.8      203.2  -92.3    5.0  145.9   -5.3   200.0
 17 JAN 22  22:14:00:00     468    3.3      41    0.6      203.2  -92.2    5.0  145.9   -5.3   199.5
 17 JAN 22  22:15:00:00     465    3.1      39    1.1      203.2  -92.1    5.0  145.9   -5.3   198.9
 17 JAN 22  22:16:00:00     466    3.0      39    0.3      203.1  -92.0    5.1  145.9   -5.3   198.4
 17 JAN 22  22:17:00:00     464    2.9      36    0.5      203.1  -92.0    5.1  145.9   -5.3   197.8
 17 JAN 22  22:18:00:00     466    2.6      38    1.2      203.1  -91.9    5.1  146.0   -5.3   197.3
 17 JAN 22  22:19:00:00     467    2.9      37    0.6      203.0  -91.8    5.1  146.0   -5.3   196.8
 17 JAN 22  22:20:00:00     465    2.5      39    0.0      203.0  -91.7    5.2  146.0   -5.3   196.2
 17 JAN 22  22:21:00:00     464    2.8      35   -0.4      203.0  -91.7    5.2  146.0   -5.3   195.7
 17 JAN 22  22:22:00:00     463    2.1      39   -0.5      203.0  -91.6    5.2  146.0   -5.3   195.1
 17 JAN 22  22:23:00:00     457    2.1      41   -1.0      202.9  -91.5    5.2  146.0   -5.3   194.5
 17 JAN 23  23:00:00:00     458    2.3      39   -1.3      202.9  -91.4    5.2  146.0   -5.3   194.0
 17 JAN 23  23:01:00:00     446    1.9      43   -1.1      202.9  -91.4    5.3  146.0   -5.3   193.4
 17 JAN 23  23:02:00:00     451    1.7      42   -1.0      202.9  -91.3    5.3  146.0   -5.3   192.9
 17 JAN 23  23:03:00:00     450    1.7      42   -0.6      202.8  -91.2    5.3  146.0   -5.3   192.3
 17 JAN 23  23:04:00:00     456    2.7      33   -2.0      202.8  -91.1    5.3  146.0   -5.3   191.8
 17 JAN 23  23:05:00:00     445    2.1      42   -0.9      202.8  -91.0    5.4  146.0   -5.3   191.3
 17 JAN 23  23:06:00:00     417    2.5      40    0.0      202.7  -91.0    5.4  146.0   -5.3   190.7
 17 JAN 23  23:07:00:00     450    3.8      30   -0.9      202.7  -90.9    5.4  146.0   -5.3   190.2
 17 JAN 23  23:08:00:00     451    3.7      30   -1.2      202.7  -90.8    5.4  146.0   -5.3   189.6
 17 JAN 23  23:09:00:00     450    3.3      31   -0.9      202.7  -90.7    5.5  146.0   -5.3   189.1
 17 JAN 23  23:10:00:00     446    2.4      37   -1.8      202.6  -90.6    5.5  146.0   -5.3   188.5
 17 JAN 23  23:11:00:00     420    1.9      41   -0.2      202.6  -90.6    5.5  146.0   -5.4   187.9
 17 JAN 23  23:12:00:00     416    2.1      39    0.6      202.6  -90.5    5.5  146.0   -5.4   187.4
 17 JAN 23  23:13:00:00     429    2.1      39   -0.6      202.6  -90.4    5.6  146.0   -5.4   186.8
 17 JAN 23  23:14:00:00     425    2.5      38   -1.8      202.5  -90.3    5.6  146.0   -5.4   186.3
 17 JAN 23  23:15:00:00     406    3.0      35   -1.1      202.5  -90.2    5.6  146.0   -5.4   185.8
 17 JAN 23  23:16:00:00     408    3.3      35    1.3      202.5  -90.2    5.6  146.0   -5.4   185.2
 17 JAN 23  23:17:00:00     394    3.6      30    0.7      202.5  -90.1    5.7  146.0   -5.4   184.7
 17 JAN 23  23:18:00:00     380    4.9      25    3.0      202.4  -90.0    5.7  146.0   -5.4   184.1
 17 JAN 23  23:19:00:00     375    6.2      24    3.0      202.4  -89.9    5.7  146.0   -5.4   183.6
 17 JAN 23  23:20:00:00     372    5.8      24    2.1      202.4  -89.8    5.7  146.0   -5.4   183.0
 17 JAN 23  23:21:00:00     365    4.6      22    0.9      202.4  -89.8    5.8  146.0   -5.4   182.5
 17 JAN 23  23:22:00:00     361    4.9      23    1.1      202.3  -89.7    5.8  146.0   -5.4   181.9
 17 JAN 23  23:23:00:00     377    3.1      27    0.6      202.3  -89.6    5.8  146.0   -5.4   181.4
 17 JAN 24  24:00:00:00     371    2.6      24    1.0      202.3  -89.5    5.8  146.0   -5.4   180.8
 17 JAN 24  24:01:00:00     370    2.6      25    0.6      202.2  -89.4    5.8  146.0   -5.4   180.3
 17 JAN 24  24:02:00:00     360    2.8      27    0.2      202.2  -89.3    5.9  146.0   -5.4   179.7
 17 JAN 24  24:03:00:00     352    2.8      27    0.0      202.2  -89.3    5.9  146.0   -5.4   179.2
 17 JAN 24  24:04:00:00     349    2.1      28    0.0      202.2  -89.2    5.9  146.0   -5.4   178.6
 17 JAN 24  24:05:00:00     346    2.2      28   -0.1      202.1  -89.1    5.9  146.0   -5.4   178.1
 17 JAN 24  24:06:00:00     329    2.4      25   -0.3      202.1  -89.0    6.0  146.0   -5.4   177.5
 17 JAN 24  24:07:00:00     315    2.2      22    0.1      202.1  -88.9    6.0  146.0   -5.4   177.0
 17 JAN 24  24:08:00:00     311    2.2      21   -0.2      202.1  -88.8    6.0  146.0   -5.4   176.4
 17 JAN 24  24:09:00:00     303    1.9      19    0.2      202.0  -88.7    6.0  146.0   -5.4   175.9
 17 JAN 24  24:10:00:00     299    2.0      19    0.0      202.0  -88.7    6.1  146.0   -5.4   175.3
 17 JAN 24  24:11:00:00     293    2.8      18   -0.2      202.0  -88.6    6.1  146.0   -5.4   174.8
 17 JAN 24  24:12:00:00     291    2.5      18    0.3      202.0  -88.5    6.1  146.0   -5.4   174.2
 17 JAN 24  24:13:00:00     294    3.0      19   -0.4      201.9  -88.4    6.1  146.0   -5.4   173.7
 17 JAN 24  24:14:00:00     294    2.8      19   -0.1      201.9  -88.3    6.2  146.0   -5.4   173.1
 17 JAN 24  24:15:00:00     308    2.4      20   -1.8      201.9  -88.2    6.2  146.0   -5.4   172.6
 17 JAN 24  24:16:00:00     310    2.1      21   -0.5      201.9  -88.1    6.2  146.0   -5.4   172.1
 17 JAN 24  24:17:00:00     310    1.9      21    0.0      201.8  -88.1    6.2  146.0   -5.4   171.5
 17 JAN 24  24:18:00:00     318    2.2      23    0.0      201.8  -88.0    6.2  146.0   -5.4   171.0
 17 JAN 24  24:19:00:00     320    2.4      23   -0.3      201.8  -87.9    6.3  146.0   -5.4   170.4
 17 JAN 24  24:20:00:00     313    3.0      21   -0.6      201.8  -87.8    6.3  146.0   -5.5   169.8
 17 JAN 24  24:21:00:00      -1   -1.0      -1   99.0      201.7  -87.7    6.3  146.0   -5.5   169.3
 17 JAN 24  24:22:00:00      -1   -1.0      -1   99.0      201.7  -87.6    6.3  146.0   -5.5   168.7
 17 JAN 24  24:23:00:00      -1   -1.0      -1   99.0      201.7  -87.5    6.4  146.0   -5.5   168.2
 17 JAN 25  25:00:00:00      -1   -1.0      -1   99.0      201.7  -87.4    6.4  146.0   -5.5   167.6
 17 JAN 25  25:01:00:00      -1   -1.0      -1   99.0      201.6  -87.3    6.4  146.0   -5.5   167.1
 17 JAN 25  25:02:00:00      -1   -1.0      -1   99.0      201.6  -87.3    6.4  146.0   -5.5   166.6
 17 JAN 25  25:03:00:00     344    1.1      27    0.2      201.6  -87.2    6.5  146.0   -5.5   166.0
 17 JAN 25  25:04:00:00     326    2.3      24    1.1      201.6  -87.1    6.5  146.0   -5.5   165.5
 17 JAN 25  25:05:00:00     325    1.9      24    0.0      201.5  -87.0    6.5  146.0   -5.5   164.9
 17 JAN 25  25:06:00:00     337    1.6      26   -0.8      201.5  -86.9    6.5  146.0   -5.5   164.4
 17 JAN 25  25:07:00:00     322    4.2      23    1.1      201.5  -86.8    6.5  146.0   -5.5   163.8
 17 JAN 25  25:08:00:00     329    2.9      23   -1.0      201.5  -86.7    6.6  146.0   -5.5   163.2
 17 JAN 25  25:09:00:00     330    3.3      23   -1.5      201.4  -86.6    6.6  146.0   -5.5   162.7
 17 JAN 25  25:10:00:00     326    4.3      22   -0.3      201.4  -86.5    6.6  146.0   -5.5   162.1
 17 JAN 25  25:11:00:00     328    6.1      22   -3.8      201.4  -86.4    6.6  146.0   -5.5   161.6
 17 JAN 25  25:12:00:00     333    7.2      23   -6.8      201.4  -86.3    6.7  146.0   -5.5   161.1
 17 JAN 25  25:13:00:00     330    5.8      22   -6.7      201.3  -86.3    6.7  146.0   -5.6   160.5
 17 JAN 25  25:14:00:00     328    5.3      22   -5.8      201.3  -86.2    6.7  146.0   -5.6   160.0
 17 JAN 25  25:15:00:00     331    4.7      22   -3.9      201.3  -86.1    6.7  146.0   -5.6   159.4
 17 JAN 25  25:16:00:00     330    4.3      22   -2.6      201.3  -86.0    6.8  146.0   -5.6   158.9
 17 JAN 25  25:17:00:00     330    4.8      22   -2.3      201.2  -85.9    6.8  146.0   -5.6   158.3
 17 JAN 25  25:18:00:00     331    5.1      22   -0.7      201.2  -85.8    6.8  146.0   -5.6   157.8
 17 JAN 25  25:19:00:00     330    5.1      22    3.3      201.2  -85.7    6.8  146.0   -5.6   157.2
 17 JAN 25  25:20:00:00     330    5.1      22    1.6      201.2  -85.6    6.8  146.0   -5.6   156.6
 17 JAN 25  25:21:00:00     335    6.1      22   -2.3      201.1  -85.5    6.9  146.0   -5.6   156.1
 17 JAN 25  25:22:00:00     333    6.5      23   -0.7      201.1  -85.4    6.9  146.0   -5.6   155.6
 17 JAN 25  25:23:00:00     338    5.9      23   -0.1      201.1  -85.3    6.9  146.0   -5.6   155.0
 17 JAN 26  26:00:00:00     341    5.8      22   -0.1      201.1  -85.2    6.9  146.0   -5.6   154.5
 17 JAN 26  26:01:00:00     340    6.3      20   -1.7      201.0  -85.1    7.0  146.0   -5.6   154.0
 17 JAN 26  26:02:00:00     337    5.5      21   -1.6      201.0  -85.0    7.0  146.0   -5.6   153.4
 17 JAN 26  26:03:00:00     335    3.8      22   -0.6      201.0  -84.9    7.0  146.0   -5.6   152.8
 17 JAN 26  26:04:00:00     335    4.2      22   -1.7      201.0  -84.8    7.0  146.0   -5.6   152.3
 17 JAN 26  26:05:00:00     334    3.2      22   -1.7      200.9  -84.7    7.0  146.0   -5.6   151.7
 17 JAN 26  26:06:00:00     337    3.3      22   -2.2      200.9  -84.6    7.1  146.0   -5.6   151.2
 17 JAN 26  26:07:00:00     343    5.7      21   -1.2      200.9  -84.5    7.1  146.0   -5.6   150.6
 17 JAN 26  26:08:00:00     351    6.7      19   -0.6      200.9  -84.5    7.1  146.0   -5.6   150.1
 17 JAN 26  26:09:00:00     349    6.3      17   -0.4      200.8  -84.4    7.1  146.0   -5.6   149.5
 17 JAN 26  26:10:00:00     351    7.7      17   -0.1      200.8  -84.3    7.2  146.0   -5.6   149.0
 17 JAN 26  26:11:00:00     357    7.9      22    1.0      200.8  -84.2    7.2  146.0   -5.6   148.5
 17 JAN 26  26:12:00:00     352    7.5      20    0.1      200.8  -84.1    7.2  146.0   -5.6   147.9
 17 JAN 26  26:13:00:00     365    8.1      24    1.5      200.7  -84.0    7.2  146.0   -5.6   147.4
 17 JAN 26  26:14:00:00     389    6.1      32    1.4      200.7  -83.9    7.3  146.0   -5.6   146.8
 17 JAN 26  26:15:00:00     416    7.3      36   -0.6      200.7  -83.8    7.3  146.0   -5.6   146.2
 17 JAN 26  26:16:00:00     452   10.3      34   -1.8      200.7  -83.7    7.3  146.0   -5.6   145.7
 17 JAN 26  26:17:00:00     489    9.0      40   -1.4      200.6  -83.6    7.3  146.0   -5.6   145.1
 17 JAN 26  26:18:00:00     494    9.2      43   -0.2      200.6  -83.5    7.3  146.0   -5.6   144.6
 17 JAN 26  26:19:00:00     524    8.3      54    1.8      200.6  -83.4    7.4  146.0   -5.6   144.0
 17 JAN 26  26:20:00:00     530   10.6      60    3.0      200.6  -83.3    7.4  146.0   -5.6   143.5
 17 JAN 26  26:21:00:00     515   13.0      64    1.7      200.5  -83.2    7.4  146.0   -5.6   143.0
 17 JAN 26  26:22:00:00     524   14.5      73   -0.2      200.5  -83.1    7.4  146.0   -5.6   142.4
 17 JAN 26  26:23:00:00     529   13.5      70    1.9      200.5  -83.0    7.5  146.0   -5.7   141.9
 17 JAN 27  27:00:00:00     530   11.5      71    1.2      200.5  -82.9    7.5  146.0   -5.7   141.3
 17 JAN 27  27:01:00:00     550    8.5      63   -0.8      200.4  -82.8    7.5  146.0   -5.7   140.8
 17 JAN 27  27:02:00:00     569    7.8      59   -0.9      200.4  -82.7    7.5  146.0   -5.7   140.2
 17 JAN 27  27:03:00:00     570    8.0      63    0.0      200.4  -82.6    7.5  146.0   -5.7   139.7
 17 JAN 27  27:04:00:00     576    9.0      65    0.0      200.4  -82.5    7.6  146.0   -5.7   139.1
 17 JAN 27  27:05:00:00     571    7.8      62    0.0      200.3  -82.4    7.6  146.0   -5.7   138.5
 17 JAN 27  27:06:00:00     591    5.3      59   -2.0      200.3  -82.3    7.6  146.0   -5.7   138.0
 17 JAN 27  27:07:00:00     582    5.1      56   -1.1      200.3  -82.2    7.6  146.0   -5.7   137.5
 17 JAN 27  27:08:00:00     571    4.0      54   -0.4      200.3  -82.1    7.7  146.0   -5.7   136.9
 17 JAN 27  27:09:00:00     575    3.8      51    1.0      200.2  -82.0    7.7  146.0   -5.7   136.4
 17 JAN 27  27:10:00:00     571    4.0      49    1.1      200.2  -81.9    7.7  146.0   -5.7   135.8
 17 JAN 27  27:11:00:00     572    4.1      53    2.3      200.2  -81.8    7.7  146.0   -5.7   135.3
 17 JAN 27  27:12:00:00     560    3.8      52    1.7      200.2  -81.7    7.7  146.0   -5.7   134.7
 17 JAN 27  27:13:00:00     560    3.9      51    2.0      200.1  -81.6    7.8  146.0   -5.7   134.2
 17 JAN 27  27:14:00:00     556    4.8      51    2.1      200.1  -81.5    7.8  146.0   -5.7   133.6
 17 JAN 27  27:15:00:00     553    4.2      51    1.0      200.1  -81.3    7.8  146.1   -5.7   133.1
 17 JAN 27  27:16:00:00     554    4.6      50    2.8      200.1  -81.2    7.8  146.1   -5.7   132.5
 17 JAN 27  27:17:00:00     556    4.0      50    2.4      200.0  -81.1    7.8  146.1   -5.7   132.0
 17 JAN 27  27:18:00:00     549    3.9      52    1.2      200.0  -81.0    7.9  146.1   -5.7   131.4
 17 JAN 27  27:19:00:00     548    3.8      49    2.3      200.0  -80.9    7.9  146.1   -5.7   130.9
 17 JAN 27  27:20:00:00     547    4.2      48    3.0      200.0  -80.8    7.9  146.1   -5.7   130.3
 17 JAN 27  27:21:00:00     538    3.9      48    2.3      200.0  -80.7    7.9  146.1   -5.7   129.8
 17 JAN 27  27:22:00:00     527    4.1      49    1.7      199.9  -80.6    8.0  146.1   -5.7   129.3
 17 JAN 27  27:23:00:00     526    4.4      48    1.8      199.9  -80.5    8.0  146.1   -5.7   128.7
 17 JAN 28  28:00:00:00     504    4.8      44    2.8      199.9  -80.4    8.0  146.1   -5.7   128.1
 17 JAN 28  28:01:00:00     503    5.3      44    1.2      199.9  -80.3    8.0  146.1   -5.7   127.6
 17 JAN 28  28:02:00:00     479    6.4      38    1.7      199.8  -80.2    8.0  146.1   -5.7   127.0
 17 JAN 28  28:03:00:00     499    5.1      42    2.0      199.8  -80.1    8.1  146.1   -5.7   126.5
 17 JAN 28  28:04:00:00     517    5.1      46    1.7      199.8  -80.0    8.1  146.1   -5.7   125.9
 17 JAN 28  28:05:00:00     531    3.6      47    1.3      199.8  -79.9    8.1  146.1   -5.7   125.4
 17 JAN 28  28:06:00:00     516    4.7      46    1.1      199.7  -79.8    8.1  146.1   -5.7   124.8
 17 JAN 28  28:07:00:00     532    4.4      47    1.3      199.7  -79.7    8.2  146.1   -5.7   124.3
 17 JAN 28  28:08:00:00     530    4.6      47    1.6      199.7  -79.6    8.2  146.1   -5.7   123.8
 17 JAN 28  28:09:00:00     519    4.6      47    1.4      199.7  -79.5    8.2  146.1   -5.7   123.2
 17 JAN 28  28:10:00:00     521    4.4      47    0.9      199.6  -79.3    8.2  146.1   -5.7   122.7
 17 JAN 28  28:11:00:00     517    4.8      46    0.3      199.6  -79.2    8.2  146.1   -5.8   122.1
 17 JAN 28  28:12:00:00     515    4.1      46   -0.6      199.6  -79.1    8.3  146.1   -5.8   121.5
 17 JAN 28  28:13:00:00     510    4.4      45   -0.8      199.6  -79.0    8.3  146.1   -5.8   121.0
 17 JAN 28  28:14:00:00     490    4.7      43   -1.4      199.5  -78.9    8.3  146.1   -5.8   120.4
 17 JAN 28  28:15:00:00     485    4.6      42   -0.6      199.5  -78.8    8.3  146.1   -5.8   119.9
 17 JAN 28  28:16:00:00     474    5.0      40   -0.9      199.5  -78.7    8.3  146.1   -5.8   119.3
 17 JAN 28  28:17:00:00     472    5.3      39   -0.9      199.5  -78.6    8.4  146.1   -5.8   118.8
 17 JAN 28  28:18:00:00     476    5.2      40   -1.5      199.4  -78.5    8.4  146.1   -5.8   118.3
 17 JAN 28  28:19:00:00     466    5.4      37   -1.6      199.4  -78.4    8.4  146.1   -5.8   117.7
 17 JAN 28  28:20:00:00     461    4.7      38   -1.2      199.4  -78.3    8.4  146.1   -5.8   117.2
 17 JAN 28  28:21:00:00     459    4.0      39   -1.8      199.4  -78.2    8.4  146.1   -5.8   116.6
 17 JAN 28  28:22:00:00     465    4.6      39   -2.1      199.3  -78.0    8.5  146.1   -5.8   116.1
 17 JAN 28  28:23:00:00     459    3.8      38   -1.9      199.3  -77.9    8.5  146.1   -5.8   115.5
 17 JAN 29  29:00:00:00     453    3.6      39   -1.3      199.3  -77.8    8.5  146.1   -5.8   114.9
 17 JAN 29  29:01:00:00     436    3.2      40   -1.0      199.3  -77.7    8.5  146.1   -5.8   114.4
 17 JAN 29  29:02:00:00     429    3.4      38   -1.8      199.3  -77.6    8.6  146.1   -5.8   113.8
 17 JAN 29  29:03:00:00     429    3.3      39   -1.6      199.2  -77.5    8.6  146.1   -5.8   113.3
 17 JAN 29  29:04:00:00     418    3.2      37   -0.5      199.2  -77.4    8.6  146.1   -5.8   112.8
 17 JAN 29  29:05:00:00     411    3.4      36   -0.8      199.2  -77.3    8.6  146.1   -5.8   112.2
 17 JAN 29  29:06:00:00     410    3.5      36   -1.3      199.2  -77.2    8.6  146.1   -5.8   111.7
 17 JAN 29  29:07:00:00     411    3.4      36   -0.8      199.1  -77.0    8.7  146.1   -5.8   111.1
 17 JAN 29  29:08:00:00     405    3.5      34    0.2      199.1  -76.9    8.7  146.1   -5.8   110.6
 17 JAN 29  29:09:00:00     417    3.3      37    0.4      199.1  -76.8    8.7  146.1   -5.8   110.0
 17 JAN 29  29:10:00:00     431    3.4      38   -1.2      199.1  -76.7    8.7  146.1   -5.8   109.5
 17 JAN 29  29:11:00:00     445    4.2      34    0.6      199.0  -76.6    8.7  146.1   -5.8   108.9
 17 JAN 29  29:12:00:00     447    4.6      35    0.8      199.0  -76.5    8.8  146.1   -5.8   108.4
 17 JAN 29  29:13:00:00     446    4.5      34    0.9      199.0  -76.4    8.8  146.1   -5.8   107.8
 17 JAN 29  29:14:00:00     455    5.0      32    1.6      199.0  -76.3    8.8  146.1   -5.8   107.3
 17 JAN 29  29:15:00:00     455    3.9      34    1.5      198.9  -76.2    8.8  146.1   -5.8   106.7
 17 JAN 29  29:16:00:00     443    3.7      34    0.8      198.9  -76.0    8.8  146.1   -5.8   106.2
 17 JAN 29  29:17:00:00     434    3.0      38    0.6      198.9  -75.9    8.9  146.1   -5.8   105.7
 17 JAN 29  29:18:00:00     432    3.3      36    1.0      198.9  -75.8    8.9  146.1   -5.8   105.1
 17 JAN 29  29:19:00:00     434    3.1      37    1.3      198.8  -75.7    8.9  146.1   -5.8   104.5
 17 JAN 29  29:20:00:00     433    3.2      37    1.9      198.8  -75.6    8.9  146.1   -5.8   104.0
 17 JAN 29  29:21:00:00     430    3.0      36    1.8      198.8  -75.5    8.9  146.1   -5.8   103.4
 17 JAN 29  29:22:00:00     426    2.6      37    1.8      198.8  -75.4    9.0  146.1   -5.8   102.9
 17 JAN 29  29:23:00:00     424    3.4      36    3.0      198.8  -75.2    9.0  146.1   -5.8   102.3
 17 JAN 30  30:00:00:00     414    3.1      35    2.5      198.7  -75.1    9.0  146.1   -5.9   101.8
 17 JAN 30  30:01:00:00     405    4.2      33    2.2      198.7  -75.0    9.0  146.1   -5.9   101.2
 17 JAN 30  30:02:00:00     410    5.2      34    3.0      198.7  -74.9    9.1  146.1   -5.9   100.7
 17 JAN 30  30:03:00:00     392    8.8      28    4.1      198.7  -74.8    9.1  146.1   -5.9   100.2
 17 JAN 30  30:04:00:00     377    9.2      24    3.3      198.6  -74.7    9.1  146.1   -5.9    99.6
 17 JAN 30  30:05:00:00     374   10.2      23    3.0      198.6  -74.6    9.1  146.1   -5.9    99.1
 17 JAN 30  30:06:00:00     384    8.2      26    2.0      198.6  -74.4    9.1  146.1   -5.9    98.5
 17 JAN 30  30:07:00:00     381    8.5      25    1.8      198.6  -74.3    9.2  146.1   -5.9    98.0
 17 JAN 30  30:08:00:00     378    8.6      24    1.8      198.5  -74.2    9.2  146.1   -5.9    97.4
 17 JAN 30  30:09:00:00     376   12.2      24    2.3      198.5  -74.1    9.2  146.1   -5.9    96.8
 17 JAN 30  30:10:00:00     377   13.0      24    2.8      198.5  -74.0    9.2  146.1   -5.9    96.3
 17 JAN 30  30:11:00:00     377   16.4      24    2.7      198.5  -73.9    9.2  146.1   -5.9    95.7
 17 JAN 30  30:12:00:00     387   12.8      26    3.4      198.4  -73.7    9.3  146.1   -5.9    95.2
 17 JAN 30  30:13:00:00     406    9.9      32    5.5      198.4  -73.6    9.3  146.1   -5.9    94.7
 17 JAN 30  30:14:00:00     425    6.0      36    4.4      198.4  -73.5    9.3  146.1   -5.9    94.1
 17 JAN 30  30:15:00:00     450    4.9      34    1.8      198.4  -73.4    9.3  146.1   -5.9    93.6
 17 JAN 30  30:16:00:00     464    3.5      36    2.3      198.4  -73.3    9.3  146.1   -5.9    93.0
 17 JAN 30  30:17:00:00     465    3.7      33    1.9      198.3  -73.2    9.4  146.1   -5.9    92.5
 17 JAN 30  30:18:00:00     470    3.4      34    0.9      198.3  -73.0    9.4  146.1   -5.9    91.9
 17 JAN 30  30:19:00:00     463    4.5      30    0.6      198.3  -72.9    9.4  146.1   -6.0    91.4
 17 JAN 30  30:20:00:00     472    4.4      35    1.0      198.3  -72.8    9.4  146.1   -6.0    90.8
 17 JAN 30  30:21:00:00     453    4.5      28    0.8      198.2  -72.7    9.4  146.1   -6.0    90.2
 17 JAN 30  30:22:00:00     442    5.9      33    0.2      198.2  -72.6    9.5  146.1   -6.0    89.7
 17 JAN 30  30:23:00:00     429    5.6      31    0.2      198.2  -72.5    9.5  146.1   -6.0    89.2
 17 JAN 31  31:00:00:00     430    5.2      32    0.1      198.2  -72.3    9.5  146.1   -6.0    88.6
 17 JAN 31  31:01:00:00     434    6.3      33    0.3      198.1  -72.2    9.5  146.1   -6.0    88.1
 17 JAN 31  31:02:00:00     454    8.1      34   -1.6      198.1  -72.1    9.5  146.1   -6.0    87.5
 17 JAN 31  31:03:00:00     471    8.1      36   -2.7      198.1  -72.0    9.6  146.1   -6.0    87.0
 17 JAN 31  31:04:00:00     479    9.1      37   -3.9      198.1  -71.9    9.6  146.1   -6.0    86.4
 17 JAN 31  31:05:00:00     520    9.4      47   -2.9      198.1  -71.7    9.6  146.1   -6.0    85.9
 17 JAN 31  31:06:00:00     534    9.0      50   -2.1      198.0  -71.6    9.6  146.1   -6.0    85.3
 17 JAN 31  31:07:00:00     559    9.5      52   -3.9      198.0  -71.5    9.6  146.1   -6.0    84.8
 17 JAN 31  31:08:00:00     589   12.5      53   -3.3      198.0  -71.4    9.7  146.1   -6.0    84.2
 17 JAN 31  31:09:00:00     631    9.0      64   -1.5      198.0  -71.3    9.7  146.1   -6.0    83.7
 17 JAN 31  31:10:00:00     602   10.7      60   -2.2      197.9  -71.1    9.7  146.1   -6.0    83.1
 17 JAN 31  31:11:00:00     583    8.0      59   -2.3      197.9  -71.0    9.7  146.1   -6.0    82.6
 17 JAN 31  31:12:00:00     589    7.1      58   -2.5      197.9  -70.9    9.7  146.1   -6.0    82.0
 17 JAN 31  31:13:00:00     601    8.4      68   -1.5      197.9  -70.8    9.8  146.1   -6.0    81.5
 17 JAN 31  31:14:00:00     639    7.9      72   -0.9      197.8  -70.7    9.8  146.1   -6.0    81.0
 17 JAN 31  31:15:00:00     657    8.1      65   -1.5      197.8  -70.5    9.8  146.1   -6.0    80.4
 17 JAN 31  31:16:00:00     663    6.6      59    0.7      197.8  -70.4    9.8  146.1   -6.0    79.8
 17 JAN 31  31:17:00:00     662    5.3      57    0.7      197.8  -70.3    9.8  146.1   -6.0    79.3
 17 JAN 31  31:18:00:00     685    4.9      58    1.4      197.8  -70.2    9.8  146.1   -6.0    78.7
 17 JAN 31  31:19:00:00     694    4.5      61    1.7      197.7  -70.1    9.9  146.1   -6.0    78.2
 17 JAN 31  31:20:00:00     692    4.5      60    1.5      197.7  -69.9    9.9  146.1   -6.0    77.6
 17 JAN 31  31:21:00:00     693    4.2      59    1.7      197.7  -69.8    9.9  146.1   -6.0    77.1
 17 JAN 31  31:22:00:00     689    4.8      60    2.6      197.7  -69.7    9.9  146.1   -6.0    76.5
 17 JAN 31  31:23:00:00     705    3.9      59    2.0      197.6  -69.6    9.9  146.1   -6.0    76.0
 17 FEB  1  32:00:00:00     702    3.4      61    0.9      197.6  -69.5   10.0  146.1   -6.0    75.5
 17 FEB  1  32:01:00:00     683    3.5      63    1.4      197.6  -69.3   10.0  146.2   -6.0    74.9
 17 FEB  1  32:02:00:00     648    4.5      59    0.9      197.6  -69.2   10.0  146.2   -6.0    74.4
 17 FEB  1  32:03:00:00     643    4.9      59    1.3      197.5  -69.1   10.0  146.2   -6.0    73.8
 17 FEB  1  32:04:00:00     617    4.6      56    1.2      197.5  -69.0   10.0  146.2   -6.0    73.2
 17 FEB  1  32:05:00:00     611    5.3      53    3.1      197.5  -68.8   10.1  146.2   -6.0    72.7
 17 FEB  1  32:06:00:00     611    4.2      58   -0.7      197.5  -68.7   10.1  146.2   -6.0    72.1
 17 FEB  1  32:07:00:00     624    4.7      58    0.6      197.5  -68.6   10.1  146.2   -6.0    71.6
 17 FEB  1  32:08:00:00     623    5.3      57    0.4      197.4  -68.5   10.1  146.2   -6.0    71.0
 17 FEB  1  32:09:00:00     611    4.0      54   -0.1      197.4  -68.4   10.1  146.2   -6.0    70.5
 17 FEB  1  32:10:00:00     602    3.9      52   -0.2      197.4  -68.2   10.2  146.2   -6.1    70.0
 17 FEB  1  32:11:00:00     606    4.4      53   -1.7      197.4  -68.1   10.2  146.2   -6.1    69.4
 17 FEB  1  32:12:00:00     628    3.1      54   -0.6      197.3  -68.0   10.2  146.2   -6.1    68.9
 17 FEB  1  32:13:00:00     575    3.8      43    0.1      197.3  -67.9   10.2  146.2   -6.1    68.3
 17 FEB  1  32:14:00:00     622    4.7      55   -2.0      197.3  -67.7   10.2  146.2   -6.1    67.8
 17 FEB  1  32:15:00:00     659    4.5      59   -1.4      197.3  -67.6   10.3  146.2   -6.1    67.2
 17 FEB  1  32:16:00:00     655    3.9      60   -0.8      197.3  -67.5   10.3  146.2   -6.1    66.6
 17 FEB  1  32:17:00:00     638    4.5      58   -0.6      197.2  -67.4   10.3  146.2   -6.1    66.1
 17 FEB  1  32:18:00:00     654    3.9      59    0.9      197.2  -67.2   10.3  146.2   -6.1    65.5
 17 FEB  1  32:19:00:00     621    4.3      54    0.1      197.2  -67.1   10.3  146.2   -6.1    65.0
 17 FEB  1  32:20:00:00     637    4.0      57   -0.9      197.2  -67.0   10.3  146.2   -6.1    64.5
 17 FEB  1  32:21:00:00     655    3.3      60   -2.2      197.1  -66.9   10.4  146.2   -6.1    63.9
 17 FEB  1  32:22:00:00     649    3.2      60   -0.9      197.1  -66.8   10.4  146.2   -6.1    63.4
 17 FEB  1  32:23:00:00     656    3.2      59   -0.8      197.1  -66.6   10.4  146.2   -6.1    62.8
 17 FEB  2  33:00:00:00     696    2.9      62   -1.4      197.1  -66.5   10.4  146.2   -6.1    62.3
 17 FEB  2  33:01:00:00     683    2.8      61   -1.5      197.1  -66.4   10.4  146.2   -6.1    61.7
 17 FEB  2  33:02:00:00     641    3.4      58   -0.4      197.0  -66.3   10.5  146.2   -6.1    61.2
 17 FEB  2  33:03:00:00     643    3.1      59   -1.1      197.0  -66.1   10.5  146.2   -6.1    60.6
 17 FEB  2  33:04:00:00     593    4.4      51   -3.4      197.0  -66.0   10.5  146.2   -6.1    60.0
 17 FEB  2  33:05:00:00     583    3.8      48    0.4      197.0  -65.9   10.5  146.2   -6.1    59.5
 17 FEB  2  33:06:00:00     639    2.8      60   -1.9      196.9  -65.8   10.5  146.2   -6.1    59.0
 17 FEB  2  33:07:00:00     660    2.6      62   -1.7      196.9  -65.6   10.6  146.2   -6.1    58.4
 17 FEB  2  33:08:00:00     639    3.9      57   -1.1      196.9  -65.5   10.6  146.2   -6.1    57.9
 17 FEB  2  33:09:00:00     616    4.5      55   -0.2      196.9  -65.4   10.6  146.2   -6.1    57.4
 17 FEB  2  33:10:00:00     625    4.5      57   -1.5      196.9  -65.2   10.6  146.2   -6.1    56.8
 17 FEB  2  33:11:00:00     612    4.3      54   -0.2      196.8  -65.1   10.6  146.2   -6.1    56.2
 17 FEB  2  33:12:00:00     622    4.0      55    0.1      196.8  -65.0   10.6  146.2   -6.1    55.7
 17 FEB  2  33:13:00:00     613    3.9      54    0.4      196.8  -64.9   10.7  146.2   -6.1    55.1
 17 FEB  2  33:14:00:00     619    3.7      55    0.9      196.8  -64.7   10.7  146.2   -6.1    54.6
 17 FEB  2  33:15:00:00     640    3.1      59    0.9      196.8  -64.6   10.7  146.2   -6.1    54.0
 17 FEB  2  33:16:00:00     689    2.2      66   -0.6      196.7  -64.5   10.7  146.2   -6.1    53.5
 17 FEB  2  33:17:00:00     619    3.0      55    0.0      196.7  -64.4   10.7  146.2   -6.1    52.9
 17 FEB  2  33:18:00:00     591    3.0      48   -0.4      196.7  -64.2   10.8  146.2   -6.1    52.4
 17 FEB  2  33:19:00:00     595    2.6      50    0.7      196.7  -64.1   10.8  146.2   -6.1    51.9
 17 FEB  2  33:20:00:00     583    3.1      47   -0.2      196.6  -64.0   10.8  146.2   -6.1    51.3
 17 FEB  2  33:21:00:00     609    2.9      54    1.3      196.6  -63.9   10.8  146.2   -6.1    50.8
 17 FEB  2  33:22:00:00     604    3.3      54   -1.4      196.6  -63.7   10.8  146.2   -6.1    50.2
 17 FEB  2  33:23:00:00     591    3.2      50    0.2      196.6  -63.6   10.8  146.2   -6.1    49.6
 17 FEB  3  34:00:00:00     591    3.2      50    0.9      196.6  -63.5   10.9  146.2   -6.1    49.1
 17 FEB  3  34:01:00:00     581    3.4      47    0.7      196.5  -63.3   10.9  146.2   -6.1    48.5
 17 FEB  3  34:02:00:00     578    3.0      48    0.1      196.5  -63.2   10.9  146.2   -6.1    48.0
 17 FEB  3  34:03:00:00     591    3.2      52   -0.8      196.5  -63.1   10.9  146.2   -6.2    47.4
 17 FEB  3  34:04:00:00     576    3.0      46    0.8      196.5  -63.0   10.9  146.2   -6.2    46.9
 17 FEB  3  34:05:00:00     578    2.7      46    0.6      196.5  -62.8   11.0  146.2   -6.2    46.4
 17 FEB  3  34:06:00:00     585    2.4      54    0.3      196.4  -62.7   11.0  146.2   -6.2    45.8
 17 FEB  3  34:07:00:00     585    2.8      50   -0.8      196.4  -62.6   11.0  146.2   -6.2    45.3
 17 FEB  3  34:08:00:00     591    3.0      50   -0.3      196.4  -62.5   11.0  146.2   -6.2    44.7
 17 FEB  3  34:09:00:00     594    3.2      50   -0.2      196.4  -62.3   11.0  146.2   -6.2    44.2
 17 FEB  3  34:10:00:00     589    3.2      50    1.4      196.4  -62.2   11.0  146.2   -6.2    43.6
 17 FEB  3  34:11:00:00     587    2.7      51    0.8      196.3  -62.1   11.1  146.2   -6.2    43.1
 17 FEB  3  34:12:00:00     585    3.3      50    1.8      196.3  -61.9   11.1  146.2   -6.2    42.5
 17 FEB  3  34:13:00:00     582    2.7      49    0.8      196.3  -61.8   11.1  146.2   -6.2    41.9
 17 FEB  3  34:14:00:00     585    2.6      49   -0.4      196.3  -61.7   11.1  146.2   -6.2    41.4
 17 FEB  3  34:15:00:00     575    2.7      46   -0.4      196.3  -61.5   11.1  146.2   -6.2    40.9
 17 FEB  3  34:16:00:00     580    2.0      52   -0.8      196.2  -61.4   11.2  146.2   -6.2    40.3
 17 FEB  3  34:17:00:00     577    2.8      47    1.0      196.2  -61.3   11.2  146.2   -6.2    39.8
 17 FEB  3  34:18:00:00     578    3.3      47    1.4      196.2  -61.2   11.2  146.2   -6.2    39.2
 17 FEB  3  34:19:00:00     572    3.0      46    0.2      196.2  -61.0   11.2  146.2   -6.2    38.7
 17 FEB  3  34:20:00:00     571    2.8      47    0.9      196.2  -60.9   11.2  146.2   -6.2    38.1
 17 FEB  3  34:21:00:00     570    2.9      44   -0.2      196.1  -60.8   11.2  146.2   -6.2    37.6
 17 FEB  3  34:22:00:00     569    3.2      44   -0.2      196.1  -60.6   11.3  146.2   -6.2    37.0
 17 FEB  3  34:23:00:00     570    3.0      47   -0.5      196.1  -60.5   11.3  146.2   -6.2    36.5
 17 FEB  4  35:00:00:00     566    2.6      46    0.8      196.1  -60.4   11.3  146.2   -6.2    35.9
 17 FEB  4  35:01:00:00     564    2.8      44    1.6      196.1  -60.3   11.3  146.2   -6.2    35.4
 17 FEB  4  35:02:00:00     574    3.0      47    0.8      196.0  -60.1   11.3  146.2   -6.2    34.8
 17 FEB  4  35:03:00:00     576    2.9      47    0.2      196.0  -60.0   11.3  146.2   -6.2    34.3
 17 FEB  4  35:04:00:00     586    2.9      51    0.9      196.0  -59.9   11.4  146.2   -6.2    33.7
 17 FEB  4  35:05:00:00     587    2.4      51    0.8      196.0  -59.7   11.4  146.2   -6.2    33.2
 17 FEB  4  35:06:00:00     576    1.6      48    0.7      196.0  -59.6   11.4  146.2   -6.2    32.6
 17 FEB  4  35:07:00:00     567    1.2      46   -0.6      195.9  -59.5   11.4  146.2   -6.2    32.1
 17 FEB  4  35:08:00:00     570    0.8      48   -0.9      195.9  -59.3   11.4  146.2   -6.2    31.5
 17 FEB  4  35:09:00:00     529    1.6      45    0.2      195.9  -59.2   11.4  146.2   -6.2    31.0
 17 FEB  4  35:10:00:00     561    1.5      43    1.2      195.9  -59.1   11.5  146.2   -6.2    30.4
 17 FEB  4  35:11:00:00     522    1.8      42    0.7      195.9  -58.9   11.5  146.2   -6.2    29.9
 17 FEB  4  35:12:00:00     474    2.8      36    1.9      195.8  -58.8   11.5  146.2   -6.2    29.3
 17 FEB  4  35:13:00:00     492    1.9      42    1.5      195.8  -58.7   11.5  146.2   -6.2    28.8
 17 FEB  4  35:14:00:00     472    2.9      37    0.6      195.8  -58.6   11.5  146.2   -6.2    28.2
 17 FEB  4  35:15:00:00     479    3.1      37    1.8      195.8  -58.4   11.6  146.2   -6.2    27.7
 17 FEB  4  35:16:00:00     472    3.3      36    0.9      195.8  -58.3   11.6  146.2   -6.2    27.2
 17 FEB  4  35:17:00:00     484    2.3      39    0.3      195.7  -58.2   11.6  146.2   -6.2    26.6
 17 FEB  4  35:18:00:00     482    2.0      38    0.1      195.7  -58.0   11.6  146.2   -6.2    26.1
 17 FEB  4  35:19:00:00     460    3.3      30   -0.6      195.7  -57.9   11.6  146.2   -6.2    25.5
 17 FEB  4  35:20:00:00     463    3.3      32   -2.1      195.7  -57.8   11.6  146.2   -6.2    24.9
 17 FEB  4  35:21:00:00     469    3.4      35   -1.2      195.7  -57.6   11.7  146.2   -6.2    24.4
 17 FEB  4  35:22:00:00     477    3.9      36   -1.3      195.6  -57.5   11.7  146.2   -6.3    23.8
 17 FEB  4  35:23:00:00     504    2.1      43    0.3      195.6  -57.4   11.7  146.2   -6.3    23.3
 17 FEB  5  36:00:00:00     468    3.6      34   -0.1      195.6  -57.2   11.7  146.2   -6.3    22.7
 17 FEB  5  36:01:00:00     465    4.5      32   -0.6      195.6  -57.1   11.7  146.2   -6.3    22.2
 17 FEB  5  36:02:00:00     467    5.0      37    1.3      195.6  -57.0   11.7  146.2   -6.3    21.7
 17 FEB  5  36:03:00:00     468    5.7      35    2.9      195.6  -56.8   11.8  146.3   -6.3    21.1
 17 FEB  5  36:04:00:00     488    4.0      40    1.5      195.5  -56.7   11.8  146.3   -6.3    20.6
 17 FEB  5  36:05:00:00     482    4.4      39    1.7      195.5  -56.6   11.8  146.3   -6.3    20.0
 17 FEB  5  36:06:00:00     517    3.2      44    0.1      195.5  -56.4   11.8  146.3   -6.3    19.5
 17 FEB  5  36:07:00:00     517    4.7      46    0.7      195.5  -56.3   11.8  146.3   -6.3    18.9
 17 FEB  5  36:08:00:00     508    4.6      45   -0.1      195.5  -56.2   11.8  146.3   -6.3    18.3
 17 FEB  5  36:09:00:00     512    4.2      45   -0.2      195.4  -56.0   11.9  146.3   -6.3    17.8
 17 FEB  5  36:10:00:00     566    5.1      48   -2.7      195.4  -55.9   11.9  146.3   -6.3    17.2
 17 FEB  5  36:11:00:00     582    4.8      51   -2.5      195.4  -55.8   11.9  146.3   -6.3    16.7
 17 FEB  5  36:12:00:00     587    4.6      50   -2.9      195.4  -55.6   11.9  146.3   -6.3    16.2
 17 FEB  5  36:13:00:00     580    4.5      48   -3.1      195.4  -55.5   11.9  146.3   -6.3    15.6
 17 FEB  5  36:14:00:00     576    4.4      49   -2.2      195.4  -55.4   11.9  146.3   -6.3    15.1
 17 FEB  5  36:15:00:00     581    5.2      50   -1.8      195.3  -55.2   12.0  146.3   -6.3    14.5
 17 FEB  5  36:16:00:00     585    5.1      51   -1.6      195.3  -55.1   12.0  146.3   -6.3    14.0
 17 FEB  5  36:17:00:00     590    4.3      51   -1.7      195.3  -55.0   12.0  146.3   -6.3    13.4
 17 FEB  5  36:18:00:00     582    3.5      49   -1.6      195.3  -54.8   12.0  146.3   -6.3    12.9
 17 FEB  5  36:19:00:00     571    3.1      44   -1.1      195.3  -54.7   12.0  146.3   -6.3    12.3
 17 FEB  5  36:20:00:00     567    2.9      41   -0.4      195.3  -54.6   12.0  146.3   -6.4    11.7
 17 FEB  5  36:21:00:00     568    2.8      42    0.0      195.2  -54.4   12.1  146.3   -6.4    11.2
 17 FEB  5  36:22:00:00     569    2.5      45   -0.2      195.2  -54.3   12.1  146.3   -6.4    10.7
 17 FEB  5  36:23:00:00     576    2.5      49   -1.1      195.2  -54.2   12.1  146.3   -6.4    10.1
 17 FEB  6  37:00:00:00     580    2.4      50   -1.5      195.2  -54.0   12.1  146.3   -6.4     9.6
 17 FEB  6  37:01:00:00     570    2.7      47   -1.3      195.2  -53.9   12.1  146.3   -6.4     9.1
 17 FEB  6  37:02:00:00     575    3.3      45   -1.5      195.2  -53.8   12.1  146.3   -6.4     8.5
 17 FEB  6  37:03:00:00     562    2.5      40   -0.4      195.1  -53.6   12.1  146.3   -6.4     7.9
 17 FEB  6  37:04:00:00     558    1.8      45   -1.8      195.1  -53.5   12.2  146.3   -6.4     7.4
 17 FEB  6  37:05:00:00     559    1.6      47   -1.4      195.1  -53.4   12.2  146.3   -6.4     6.8
 17 FEB  6  37:06:00:00     558    1.5      45   -1.0      195.1  -53.2   12.2  146.3   -6.4     6.3
 17 FEB  6  37:07:00:00     537    1.9      44   -0.5      195.1  -53.1   12.2  146.3   -6.4     5.7
 17 FEB  6  37:08:00:00     503    2.4      43    3.0      195.1  -52.9   12.2  146.3   -6.4     5.2
 17 FEB  6  37:09:00:00     485    2.4      40    1.7      195.0  -52.8   12.2  146.3   -6.4     4.6
 17 FEB  6  37:10:00:00     528    1.4      46    0.1      195.0  -52.7   12.3  146.3   -6.4     4.1
 17 FEB  6  37:11:00:00     494    2.6      41    0.0      195.0  -52.5   12.3  146.3   -6.4     3.6
 17 FEB  6  37:12:00:00     477    3.1      37    1.1      195.0  -52.4   12.3  146.3   -6.4     3.0
 17 FEB  6  37:13:00:00     524    2.7      46    0.3      195.0  -52.3   12.3  146.3   -6.4     2.5
 17 FEB  6  37:14:00:00     500    2.6      41   -0.7      195.0  -52.1   12.3  146.3   -6.4     1.9
 17 FEB  6  37:15:00:00     535    1.9      44   -0.5      194.9  -52.0   12.3  146.3   -6.4     1.3
 17 FEB  6  37:16:00:00     497    2.3      41   -0.4      194.9  -51.9   12.4  146.3   -6.4     0.8